createdAt,value
2023-01-11T00:02:14.719Z,4.40
2023-01-11T00:04:41.833Z,4.30
2023-01-11T00:07:08.859Z,4.20
2023-01-11T00:09:35.898Z,4.20
2023-01-11T00:12:03.048Z,4.10
2023-01-11T00:14:30.113Z,4.10
2023-01-11T00:16:59.670Z,4.10
2023-01-11T00:19:26.739Z,4.10
2023-01-11T00:21:53.797Z,4.00
2023-01-11T00:24:20.930Z,3.90
2023-01-11T00:26:47.950Z,3.80
2023-01-11T00:29:15.047Z,3.80
2023-01-11T00:31:42.166Z,3.70
2023-01-11T00:34:09.181Z,3.60
2023-01-11T00:36:36.188Z,3.60
2023-01-11T00:39:03.447Z,3.50
2023-01-11T00:41:49.164Z,3.50
2023-01-11T00:44:34.883Z,3.40
2023-01-11T00:47:20.282Z,3.30
2023-01-11T00:49:47.437Z,3.20
2023-01-11T00:52:14.508Z,3.20
2023-01-11T00:54:42.502Z,3.10
2023-01-11T00:57:09.746Z,3.00
2023-01-11T00:59:39.628Z,2.90
2023-01-11T01:02:07.638Z,2.80
2023-01-11T01:04:34.964Z,2.80
2023-01-11T01:07:02.081Z,2.70
2023-01-11T01:09:29.228Z,2.70
2023-01-11T01:11:56.290Z,2.70
2023-01-11T01:14:26.206Z,2.60
2023-01-11T01:16:58.937Z,2.70
2023-01-11T01:19:27.924Z,2.60
2023-01-11T01:21:59.588Z,2.60
2023-01-11T01:24:31.101Z,2.50
2023-01-11T01:26:59.080Z,2.40
2023-01-11T01:29:26.411Z,2.40
2023-01-11T01:31:53.435Z,2.30
2023-01-11T01:34:20.541Z,2.30
2023-01-11T01:36:47.638Z,2.20
2023-01-11T01:39:15.242Z,2.10
2023-01-11T01:41:42.282Z,2.10
2023-01-11T01:44:46.984Z,2.00
2023-01-11T01:47:14.814Z,2.00
2023-01-11T01:49:44.556Z,2.00
2023-01-11T01:52:12.863Z,2.00
2023-01-11T01:54:44.966Z,1.90
2023-01-11T01:57:21.450Z,1.80
2023-01-11T01:59:55.404Z,1.70
2023-01-11T02:02:25.231Z,1.80
2023-01-11T02:04:55.802Z,1.80
2023-01-11T02:07:33.155Z,1.90
2023-01-11T02:10:03.768Z,1.90
2023-01-11T02:12:55.907Z,1.90
2023-01-11T02:15:24.195Z,1.90
2023-01-11T02:17:51.369Z,1.90
2023-01-11T02:20:58.501Z,2.00
2023-01-11T02:23:28.270Z,2.00
2023-01-11T02:26:07.256Z,2.00
2023-01-11T02:28:43.102Z,2.00
2023-01-11T02:31:22.896Z,2.00
2023-01-11T02:34:17.229Z,2.00
2023-01-11T02:37:05.895Z,2.00
2023-01-11T02:39:53.366Z,2.00
2023-01-11T02:42:56.348Z,2.00
2023-01-11T02:45:45.337Z,2.00
2023-01-11T02:48:19.609Z,2.00
2023-01-11T02:51:12.320Z,2.00
2023-01-11T02:53:43.198Z,1.90
2023-01-11T02:56:18.714Z,2.00
2023-01-11T02:58:48.972Z,2.00
2023-01-11T03:01:16.902Z,2.00
2023-01-11T03:03:44.134Z,2.00
2023-01-11T03:06:11.518Z,1.90
2023-01-11T03:09:23.401Z,1.90
2023-01-11T03:12:48.453Z,2.00
2023-01-11T03:15:24.201Z,2.00
2023-01-11T03:18:24.480Z,2.00
2023-01-11T03:21:10.697Z,2.00
2023-01-11T03:24:17.050Z,2.00
2023-01-11T03:26:56.265Z,2.00
2023-01-11T03:29:52.840Z,2.00
2023-01-11T03:32:29.063Z,2.00
2023-01-11T03:35:21.220Z,2.00
2023-01-11T03:38:29.160Z,2.00
2023-01-11T03:41:04.152Z,1.90
2023-01-11T03:43:34.439Z,1.90
2023-01-11T03:46:06.685Z,2.00
2023-01-11T03:48:49.987Z,1.90
2023-01-11T03:51:22.779Z,1.90
2023-01-11T03:53:51.577Z,1.90
2023-01-11T03:56:23.057Z,1.90
2023-01-11T03:58:50.332Z,2.00
2023-01-11T04:01:17.606Z,2.00
2023-01-11T04:03:44.647Z,1.90
2023-01-11T04:06:12.133Z,1.90
2023-01-11T04:08:40.547Z,2.00
2023-01-11T04:11:07.703Z,1.90
2023-01-11T04:13:34.855Z,2.00
2023-01-11T04:16:02.224Z,2.00
2023-01-11T04:18:29.339Z,2.00
2023-01-11T04:20:56.345Z,2.00
2023-01-11T04:23:23.501Z,2.00
2023-01-11T04:25:50.681Z,2.00
2023-01-11T04:28:17.716Z,2.00
2023-01-11T04:30:44.793Z,2.00
2023-01-11T04:33:13.368Z,2.00
2023-01-11T04:35:40.561Z,1.90
2023-01-11T04:38:07.619Z,2.00
2023-01-11T04:40:34.746Z,2.00
2023-01-11T04:43:02.489Z,1.90
2023-01-11T04:45:30.841Z,1.90
2023-01-11T04:47:58.724Z,1.90
2023-01-11T04:50:26.772Z,1.90
2023-01-11T04:52:54.182Z,1.90
2023-01-11T04:55:21.764Z,1.90
2023-01-11T04:57:48.813Z,1.90
2023-01-11T05:00:16.276Z,1.90
2023-01-11T05:02:43.460Z,1.90
2023-01-11T05:05:12.133Z,2.00
2023-01-11T05:07:39.447Z,1.90
2023-01-11T05:10:07.035Z,1.90
2023-01-11T05:12:34.081Z,1.90
2023-01-11T05:15:01.096Z,1.90
2023-01-11T05:17:28.245Z,1.90
2023-01-11T05:19:55.350Z,1.90
2023-01-11T05:22:22.500Z,2.00
2023-01-11T05:24:49.513Z,1.90
2023-01-11T05:27:16.558Z,1.90
2023-01-11T05:29:44.363Z,2.00
2023-01-11T05:32:12.440Z,2.00
2023-01-11T05:34:39.526Z,2.00
2023-01-11T05:37:06.653Z,2.00
2023-01-11T05:39:33.810Z,2.00
2023-01-11T05:42:00.833Z,2.00
2023-01-11T05:44:46.322Z,2.00
2023-01-11T05:47:13.330Z,2.00
2023-01-11T05:49:40.468Z,2.00
2023-01-11T05:52:07.485Z,2.00
2023-01-11T05:54:34.556Z,1.90
2023-01-11T05:57:01.627Z,1.90
2023-01-11T05:59:31.891Z,1.80
2023-01-11T06:01:59.195Z,1.80
2023-01-11T06:04:27.563Z,1.80
2023-01-11T06:06:54.677Z,1.80
2023-01-11T06:09:21.796Z,1.70
2023-01-11T06:11:50.651Z,1.70
2023-01-11T06:14:17.739Z,1.70
2023-01-11T06:16:44.840Z,1.70
2023-01-11T06:19:12.024Z,1.70
2023-01-11T06:21:39.090Z,1.70
2023-01-11T06:24:06.447Z,1.70
2023-01-11T06:26:33.462Z,1.60
2023-01-11T06:29:00.505Z,1.60
2023-01-11T06:31:27.757Z,1.60
2023-01-11T06:33:54.806Z,1.60
2023-01-11T06:36:21.899Z,1.60
2023-01-11T06:38:48.955Z,1.60
2023-01-11T06:41:16.089Z,1.70
2023-01-11T06:43:43.139Z,1.70
2023-01-11T06:46:15.010Z,1.60
2023-01-11T06:48:42.868Z,1.60
2023-01-11T06:51:12.120Z,1.60
2023-01-11T06:53:40.786Z,1.60
2023-01-11T06:56:08.395Z,1.70
2023-01-11T06:58:35.564Z,1.70
2023-01-11T07:01:02.704Z,1.70
2023-01-11T07:03:29.986Z,1.70
2023-01-11T07:05:57.970Z,1.70
2023-01-11T07:08:26.318Z,1.80
2023-01-11T07:10:53.729Z,1.80
2023-01-11T07:13:21.042Z,1.80
2023-01-11T07:15:50.703Z,1.90
2023-01-11T07:18:19.369Z,1.90
2023-01-11T07:20:47.028Z,1.90
2023-01-11T07:23:14.207Z,2.00
2023-01-11T07:25:43.660Z,2.00
2023-01-11T07:28:10.678Z,2.10
2023-01-11T07:30:56.050Z,2.10
2023-01-11T07:33:24.770Z,2.10
2023-01-11T07:35:51.902Z,2.10
2023-01-11T07:38:18.918Z,2.20
2023-01-11T07:40:45.964Z,2.20
2023-01-11T07:43:18.524Z,2.30
2023-01-11T07:45:49.585Z,2.40
2023-01-11T07:48:21.498Z,2.40
2023-01-11T07:50:49.110Z,2.50
2023-01-11T07:53:16.466Z,2.60
2023-01-11T07:55:43.796Z,2.60
2023-01-11T07:58:15.173Z,2.70
2023-01-11T08:00:42.528Z,2.80
2023-01-11T08:03:10.257Z,2.80
2023-01-11T08:05:37.899Z,2.90
2023-01-11T08:08:05.968Z,2.90
2023-01-11T08:10:33.648Z,3.00
2023-01-11T08:13:19.845Z,3.10
2023-01-11T08:15:46.981Z,3.10
2023-01-11T08:18:14.518Z,3.20
2023-01-11T08:20:41.743Z,3.30
2023-01-11T08:23:10.829Z,3.40
2023-01-11T08:25:38.304Z,3.40
2023-01-11T08:28:07.744Z,3.50
2023-01-11T08:30:36.341Z,3.50
2023-01-11T08:33:04.825Z,3.50
2023-01-11T08:35:37.058Z,3.50
2023-01-11T08:38:04.277Z,3.60
2023-01-11T08:40:31.310Z,3.60
2023-01-11T08:42:58.768Z,3.60
2023-01-11T08:45:26.036Z,3.60
2023-01-11T08:47:53.446Z,3.70
2023-01-11T08:50:22.319Z,3.70
2023-01-11T08:52:51.341Z,3.80
2023-01-11T08:55:20.068Z,3.90
2023-01-11T08:57:47.724Z,3.90
2023-01-11T09:00:15.511Z,4.00
2023-01-11T09:02:42.705Z,4.00
2023-01-11T09:05:10.134Z,4.00
2023-01-11T09:07:37.228Z,4.00
2023-01-11T09:10:05.147Z,4.00
2023-01-11T09:12:32.964Z,4.00
2023-01-11T09:15:00.611Z,4.00
2023-01-11T09:17:28.245Z,4.00
2023-01-11T09:19:55.282Z,4.00
2023-01-11T09:22:22.437Z,4.00
2023-01-11T09:24:49.514Z,4.10
2023-01-11T09:27:16.796Z,4.10
2023-01-11T09:29:43.957Z,4.10
2023-01-11T09:32:11.005Z,4.20
2023-01-11T09:34:39.347Z,4.30
2023-01-11T09:37:07.231Z,4.30
2023-01-11T09:39:35.321Z,4.40
2023-01-11T09:42:35.651Z,4.50
2023-01-11T09:45:21.335Z,4.60
2023-01-11T09:48:11.836Z,4.70
2023-01-11T09:50:48.327Z,4.70
2023-01-11T09:53:36.263Z,4.70
2023-01-11T09:56:07.915Z,4.70
2023-01-11T09:59:09.937Z,4.70
2023-01-11T10:01:50.989Z,4.80
2023-01-11T10:04:37.511Z,4.80
2023-01-11T10:07:38.615Z,4.80
2023-01-11T10:18:26.287Z,4.80
2023-01-11T10:19:35.918Z,4.90
2023-01-11T10:22:09.664Z,5.00
2023-01-11T10:24:42.436Z,5.10
2023-01-11T10:27:37.402Z,5.10
2023-01-11T10:30:33.101Z,5.20
2023-01-11T10:33:44.034Z,5.40
2023-01-11T10:37:00.968Z,5.40
2023-01-11T10:39:48.234Z,5.50
2023-01-11T10:42:25.139Z,5.60
2023-01-11T10:45:13.195Z,5.70
2023-01-11T10:48:03.296Z,5.70
2023-01-11T10:50:38.863Z,5.80
2023-01-11T10:53:20.728Z,5.90
2023-01-11T10:56:18.982Z,5.90
2023-01-11T10:59:05.080Z,6.00
2023-01-11T11:02:19.276Z,6.10
2023-01-11T11:05:23.920Z,6.10
2023-01-11T11:08:07.009Z,6.20
2023-01-11T11:10:47.982Z,6.30
2023-01-11T11:13:51.813Z,6.30
2023-01-11T11:16:18.859Z,6.30
2023-01-11T11:18:46.044Z,6.30
2023-01-11T11:21:40.577Z,6.30
2023-01-11T11:24:23.110Z,6.30
2023-01-11T11:26:58.214Z,6.30
2023-01-11T11:29:30.657Z,6.30
2023-01-11T11:32:00.387Z,6.30
2023-01-11T11:34:28.398Z,6.40
2023-01-11T11:36:59.310Z,6.40
2023-01-11T11:39:33.240Z,6.50
2023-01-11T11:42:15.150Z,6.50
2023-01-11T11:44:42.290Z,6.50
2023-01-11T11:47:18.409Z,6.50
2023-01-11T11:49:46.136Z,6.60
2023-01-11T11:52:16.434Z,6.50
2023-01-11T11:54:57.159Z,6.60
2023-01-11T11:57:31.246Z,6.60
2023-01-11T12:00:28.916Z,6.60
2023-01-11T12:03:14.248Z,6.70
2023-01-11T12:05:50.979Z,6.70
2023-01-11T12:08:19.112Z,6.80
2023-01-11T12:10:54.168Z,6.80
2023-01-11T12:13:35.118Z,6.70
2023-01-11T12:16:05.319Z,6.70
2023-01-11T12:18:45.009Z,6.70
2023-01-11T12:21:26.382Z,6.80
2023-01-11T12:24:08.826Z,6.80
2023-01-11T12:26:55.766Z,6.70
2023-01-11T12:29:59.418Z,6.80
2023-01-11T12:32:51.053Z,6.80
2023-01-11T12:35:29.754Z,6.90
2023-01-11T12:38:15.455Z,6.90
2023-01-11T12:40:51.415Z,7.00
2023-01-11T12:43:43.155Z,7.00
2023-01-11T12:46:28.950Z,7.00
2023-01-11T12:49:14.869Z,7.00
2023-01-11T12:52:26.515Z,7.00
2023-01-11T12:55:21.893Z,6.90
2023-01-11T12:58:08.268Z,7.00
2023-01-11T13:00:38.285Z,7.00
2023-01-11T13:03:23.410Z,6.90
2023-01-11T13:06:02.230Z,6.90
2023-01-11T13:08:55.229Z,6.90
2023-01-11T13:11:42.844Z,6.90
2023-01-11T13:14:20.117Z,6.90
2023-01-11T13:17:04.530Z,6.90
2023-01-11T13:19:43.075Z,6.90
2023-01-11T13:22:16.416Z,6.90
2023-01-11T13:24:47.470Z,6.80
2023-01-11T13:27:24.581Z,6.80
2023-01-11T13:29:56.196Z,6.80
2023-01-11T13:32:27.796Z,6.80
2023-01-11T13:35:07.444Z,6.70
2023-01-11T13:37:43.190Z,6.70
2023-01-11T13:40:24.916Z,6.70
2023-01-11T13:43:16.856Z,6.70
2023-01-11T13:45:52.565Z,6.70
2023-01-11T13:48:32.799Z,6.70
2023-01-11T13:51:15.967Z,6.70
2023-01-11T13:53:51.247Z,6.60
2023-01-11T13:56:39.828Z,6.60
2023-01-11T13:59:19.749Z,6.60
2023-01-11T14:01:58.670Z,6.60
2023-01-11T14:05:01.898Z,6.60
2023-01-11T14:07:47.962Z,6.60
2023-01-11T14:10:54.493Z,6.60
2023-01-11T14:14:08.118Z,6.50
2023-01-11T14:16:44.028Z,6.50
2023-01-11T14:19:40.557Z,6.50
2023-01-11T14:22:26.817Z,6.60
2023-01-11T14:25:06.143Z,6.50
2023-01-11T14:28:00.853Z,6.50
2023-01-11T14:30:49.844Z,6.50
2023-01-11T14:33:16.889Z,6.40
2023-01-11T14:35:47.110Z,6.50
2023-01-11T14:38:28.211Z,6.40
2023-01-11T14:40:55.270Z,6.40
2023-01-11T14:44:02.419Z,6.30
2023-01-11T14:46:54.325Z,6.40
2023-01-11T14:49:52.206Z,6.40
2023-01-11T14:52:38.574Z,6.50
2023-01-11T14:55:20.927Z,6.40
2023-01-11T14:57:57.057Z,6.40
2023-01-11T15:00:24.078Z,6.40
2023-01-11T15:02:54.421Z,6.40
2023-01-11T15:05:33.379Z,6.30
2023-01-11T15:08:29.874Z,6.40
2023-01-11T15:11:07.837Z,6.40
2023-01-11T15:13:46.552Z,6.40
2023-01-11T15:16:50.825Z,6.30
2023-01-11T15:19:35.654Z,6.30
2023-01-11T15:22:04.339Z,6.30
2023-01-11T15:24:37.931Z,6.30
2023-01-11T15:27:05.208Z,6.40
2023-01-11T15:29:47.177Z,6.30
2023-01-11T15:32:19.008Z,6.30
2023-01-11T15:34:48.477Z,6.30
2023-01-11T15:37:15.554Z,6.30
2023-01-11T15:39:59.171Z,6.30
2023-01-11T15:42:48.667Z,6.30
2023-01-11T15:46:10.356Z,6.30
2023-01-11T15:49:08.360Z,6.30
2023-01-11T15:52:30.695Z,6.30
2023-01-11T15:55:20.712Z,6.30
2023-01-11T15:58:16.536Z,6.30
2023-01-11T16:01:22.057Z,6.30
2023-01-11T16:03:49.971Z,6.20
2023-01-11T16:06:28.249Z,6.20
2023-01-11T16:09:25.608Z,6.30
2023-01-11T16:12:11.197Z,6.30
2023-01-11T16:15:02.573Z,6.30
2023-01-11T16:17:29.931Z,6.30
2023-01-11T16:19:57.179Z,6.30
2023-01-11T16:22:28.610Z,6.30
2023-01-11T16:25:01.595Z,6.30
2023-01-11T16:27:32.950Z,6.30
2023-01-11T16:30:00.802Z,6.30
2023-01-11T16:32:32.906Z,6.30
2023-01-11T16:35:02.105Z,6.30
2023-01-11T16:37:38.779Z,6.30
2023-01-11T16:40:15.941Z,6.30
2023-01-11T16:43:09.556Z,6.40
2023-01-11T16:45:48.178Z,6.30
2023-01-11T16:48:25.161Z,6.40
2023-01-11T16:51:09.075Z,6.30
2023-01-11T16:53:39.215Z,6.40
2023-01-11T16:56:21.445Z,6.30
2023-01-11T16:59:14.115Z,6.40
2023-01-11T17:01:56.007Z,6.40
2023-01-11T17:04:28.140Z,6.40
2023-01-11T17:06:56.226Z,6.40
2023-01-11T17:09:24.488Z,6.40
2023-01-11T17:11:52.836Z,6.50
2023-01-11T17:14:53.973Z,6.50
2023-01-11T17:17:21.542Z,6.50
2023-01-11T17:19:50.034Z,6.50
2023-01-11T17:22:31.564Z,6.50
2023-01-11T17:25:05.959Z,6.40
2023-01-11T17:27:35.761Z,6.50
2023-01-11T17:30:04.462Z,6.50
2023-01-11T17:32:44.048Z,6.40
2023-01-11T17:35:21.091Z,6.40
2023-01-11T17:37:50.705Z,6.40
2023-01-11T17:40:26.348Z,6.50
2023-01-11T17:43:17.921Z,6.40
2023-01-11T17:45:52.636Z,6.40
2023-01-11T17:48:20.603Z,6.40
2023-01-11T17:50:54.626Z,6.40
2023-01-11T17:53:32.344Z,6.40
2023-01-11T17:56:07.920Z,6.40
2023-01-11T17:58:39.106Z,6.50
2023-01-11T18:01:08.953Z,6.50
2023-01-11T18:03:48.083Z,6.50
2023-01-11T18:06:24.051Z,6.50
2023-01-11T18:08:53.820Z,6.50
2023-01-11T18:11:26.241Z,6.50
2023-01-11T18:13:55.624Z,6.50
2023-01-11T18:16:23.355Z,6.50
2023-01-11T18:18:52.138Z,6.50
2023-01-11T18:21:25.370Z,6.50
2023-01-11T18:24:11.121Z,6.60
2023-01-11T18:26:42.971Z,6.50
2023-01-11T18:29:38.102Z,6.60
2023-01-11T18:32:05.842Z,6.50
2023-01-11T18:34:32.939Z,6.60
2023-01-11T18:37:01.181Z,6.50
2023-01-11T18:39:28.302Z,6.60
2023-01-11T18:42:08.246Z,6.50
2023-01-11T18:44:43.391Z,6.60
2023-01-11T18:47:26.869Z,6.50
2023-01-11T18:49:54.304Z,6.60
2023-01-11T18:52:24.762Z,6.50
2023-01-11T18:54:52.098Z,6.60
2023-01-11T18:57:19.131Z,6.60
2023-01-11T18:59:46.989Z,6.60
2023-01-11T19:02:22.015Z,6.60
2023-01-11T19:04:49.424Z,6.60
2023-01-11T19:07:17.307Z,6.60
2023-01-11T19:09:47.140Z,6.70
2023-01-11T19:12:15.471Z,6.70
2023-01-11T19:14:42.649Z,6.70
2023-01-11T19:17:11.303Z,6.70
2023-01-11T19:19:38.501Z,6.70
2023-01-11T19:22:06.441Z,6.80
2023-01-11T19:24:33.913Z,6.80
2023-01-11T19:27:01.266Z,6.80
2023-01-11T19:29:28.665Z,6.80
2023-01-11T19:31:55.933Z,6.90
2023-01-11T19:34:23.725Z,6.90
2023-01-11T19:36:51.924Z,6.90
2023-01-11T19:39:19.081Z,6.90
2023-01-11T19:41:57.723Z,6.90
2023-01-11T19:44:30.521Z,6.90
2023-01-11T19:47:10.456Z,6.90
2023-01-11T19:49:38.831Z,6.90
2023-01-11T19:52:12.531Z,6.90
2023-01-11T19:54:43.967Z,6.80
2023-01-11T19:57:14.627Z,6.70
2023-01-11T19:59:42.389Z,6.70
2023-01-11T20:02:12.769Z,6.70
2023-01-11T20:04:40.837Z,6.70
2023-01-11T20:07:09.502Z,6.60
2023-01-11T20:09:39.671Z,6.60
2023-01-11T20:12:11.605Z,6.60
2023-01-11T20:14:40.659Z,6.50
2023-01-11T20:17:08.469Z,6.40
2023-01-11T20:19:35.578Z,6.40
2023-01-11T20:22:03.036Z,6.40
2023-01-11T20:24:30.399Z,6.40
2023-01-11T20:27:00.438Z,6.40
2023-01-11T20:29:27.580Z,6.40
2023-01-11T20:31:54.667Z,6.30
2023-01-11T20:34:21.875Z,6.30
2023-01-11T20:36:49.143Z,6.30
2023-01-11T20:39:17.553Z,6.30
2023-01-11T20:41:47.573Z,6.30
2023-01-11T20:44:27.374Z,6.30
2023-01-11T20:46:58.590Z,6.20
2023-01-11T20:49:29.007Z,6.20
2023-01-11T20:51:56.579Z,6.20
2023-01-11T20:54:23.867Z,6.20
2023-01-11T20:56:51.104Z,6.20
2023-01-11T20:59:20.224Z,6.20
2023-01-11T21:01:48.552Z,6.20
2023-01-11T21:04:17.154Z,6.20
2023-01-11T21:06:46.307Z,6.20
2023-01-11T21:09:16.392Z,6.20
2023-01-11T21:11:44.334Z,6.20
2023-01-11T21:14:14.642Z,6.20
2023-01-11T21:16:42.956Z,6.20
2023-01-11T21:19:14.591Z,6.20
2023-01-11T21:21:42.417Z,6.20
2023-01-11T21:24:12.842Z,6.20
2023-01-11T21:26:42.102Z,6.20
2023-01-11T21:29:10.648Z,6.20
2023-01-11T21:31:39.002Z,6.20
2023-01-11T21:34:06.562Z,6.20
2023-01-11T21:36:34.544Z,6.20
2023-01-11T21:39:02.757Z,6.20
2023-01-11T21:41:50.502Z,6.20
2023-01-11T21:44:18.973Z,6.20
2023-01-11T21:46:46.635Z,6.20
2023-01-11T21:49:14.450Z,6.20
2023-01-11T21:51:42.662Z,6.20
2023-01-11T21:54:13.090Z,6.20
2023-01-11T21:56:42.176Z,6.20
2023-01-11T21:59:09.735Z,6.20
2023-01-11T22:01:38.466Z,6.20
2023-01-11T22:04:10.966Z,6.20
2023-01-11T22:06:40.111Z,6.20
2023-01-11T22:09:10.043Z,6.20
2023-01-11T22:11:37.144Z,6.20
2023-01-11T22:14:06.638Z,6.20
2023-01-11T22:16:34.566Z,6.10
2023-01-11T22:19:02.894Z,6.10
2023-01-11T22:21:29.981Z,6.20
2023-01-11T22:23:58.724Z,6.20
2023-01-11T22:26:27.521Z,6.20
2023-01-11T22:29:15.412Z,6.20
2023-01-11T22:31:51.450Z,6.20
2023-01-11T22:34:19.175Z,6.20
2023-01-11T22:36:46.421Z,6.20
2023-01-11T22:39:14.785Z,6.20
2023-01-11T22:41:45.465Z,6.20
2023-01-11T22:44:12.829Z,6.20
2023-01-11T22:46:40.102Z,6.20
2023-01-11T22:49:07.516Z,6.20
2023-01-11T22:51:34.739Z,6.20
2023-01-11T22:54:02.000Z,6.30
2023-01-11T22:56:31.311Z,6.30
2023-01-11T22:58:58.943Z,6.30
2023-01-11T23:01:28.505Z,6.30
2023-01-11T23:03:56.356Z,6.30
2023-01-11T23:06:26.627Z,6.30
2023-01-11T23:08:54.222Z,6.30
2023-01-11T23:11:42.459Z,6.30
2023-01-11T23:14:15.559Z,6.30
2023-01-11T23:16:43.716Z,6.30
2023-01-11T23:19:12.460Z,6.30
2023-01-11T23:21:40.898Z,6.30
2023-01-11T23:24:08.424Z,6.30
2023-01-11T23:26:35.525Z,6.30
2023-01-11T23:29:02.917Z,6.30
2023-01-11T23:31:30.780Z,6.30
2023-01-11T23:34:00.227Z,6.30
2023-01-11T23:36:32.769Z,6.30
2023-01-11T23:39:00.554Z,6.30
2023-01-11T23:41:47.009Z,6.30
2023-01-11T23:44:15.880Z,6.40
2023-01-11T23:47:02.567Z,6.40
2023-01-11T23:49:31.045Z,6.40
2023-01-11T23:51:58.954Z,6.40
2023-01-11T23:54:29.843Z,6.40
2023-01-11T23:56:57.921Z,6.40
2023-01-11T23:59:25.363Z,6.40
